createdAt,value
2019-03-21T00:02:22.969Z,8.38
2019-03-21T00:04:50.433Z,3.98
2019-03-21T00:07:17.775Z,9.83
2019-03-21T00:09:45.889Z,4.42
2019-03-21T00:12:13.217Z,7.83
2019-03-21T00:14:40.554Z,10.35
2019-03-21T00:17:07.602Z,5.40
2019-03-21T00:19:34.651Z,5.17
2019-03-21T00:22:01.681Z,6.53
2019-03-21T00:24:28.807Z,9.95
2019-03-21T00:26:55.842Z,4.62
2019-03-21T00:29:23.269Z,6.65
2019-03-21T00:31:50.305Z,7.97
2019-03-21T00:34:17.656Z,3.08
2019-03-21T00:36:45.024Z,7.55
2019-03-21T00:39:12.078Z,6.05
2019-03-21T00:41:39.414Z,5.90
2019-03-21T00:44:17.597Z,7.12
2019-03-21T00:46:35.862Z,5.08
2019-03-21T00:49:02.895Z,5.53
2019-03-21T00:51:30.183Z,7.12
2019-03-21T00:53:57.539Z,5.53
2019-03-21T00:56:24.603Z,5.17
2019-03-21T00:58:52.600Z,5.22
2019-03-21T01:01:20.023Z,5.08
2019-03-21T01:03:47.030Z,5.33
2019-03-21T01:06:14.137Z,7.92
2019-03-21T01:08:41.445Z,5.72
2019-03-21T01:11:08.845Z,4.37
2019-03-21T01:13:36.152Z,4.33
2019-03-21T01:16:03.209Z,4.75
2019-03-21T01:18:30.248Z,6.08
2019-03-21T01:20:57.643Z,6.40
2019-03-21T01:23:24.713Z,6.12
2019-03-21T01:25:51.762Z,5.03
2019-03-21T01:28:19.166Z,10.30
2019-03-21T01:30:46.515Z,7.28
2019-03-21T01:33:13.885Z,7.25
2019-03-21T01:35:41.230Z,7.75
2019-03-21T01:38:08.261Z,11.35
2019-03-21T01:40:35.835Z,5.35
2019-03-21T01:43:03.187Z,5.78
2019-03-21T01:45:40.505Z,11.40
2019-03-21T01:48:07.552Z,4.00
2019-03-21T01:50:34.592Z,6.97
2019-03-21T01:53:01.650Z,7.22
2019-03-21T01:55:28.699Z,6.35
2019-03-21T01:57:56.022Z,4.17
2019-03-21T02:00:23.380Z,7.00
2019-03-21T02:02:50.503Z,6.60
2019-03-21T02:05:17.621Z,6.70
2019-03-21T02:07:45.055Z,5.75
2019-03-21T02:10:12.392Z,7.15
2019-03-21T02:12:39.696Z,5.70
2019-03-21T02:15:07.013Z,7.65
2019-03-21T02:17:34.364Z,6.20
2019-03-21T02:20:01.709Z,7.17
2019-03-21T02:22:29.186Z,4.10
2019-03-21T02:24:56.228Z,6.65
2019-03-21T02:27:23.566Z,4.70
2019-03-21T02:29:50.603Z,4.75
2019-03-21T02:32:17.660Z,9.28
2019-03-21T02:34:45.020Z,8.98
2019-03-21T02:37:12.078Z,15.93
2019-03-21T02:39:39.424Z,6.00
2019-03-21T02:42:06.487Z,6.05
2019-03-21T02:44:33.582Z,5.20
2019-03-21T02:47:00.655Z,8.23
2019-03-21T02:49:27.688Z,7.22
2019-03-21T02:51:54.751Z,8.65
2019-03-21T02:54:21.807Z,8.38
2019-03-21T02:56:49.199Z,9.70
2019-03-21T02:59:16.232Z,11.57
2019-03-21T03:01:43.286Z,7.87
2019-03-21T03:04:10.402Z,5.53
2019-03-21T03:06:37.446Z,7.70
2019-03-21T03:09:04.817Z,5.65
2019-03-21T03:11:32.029Z,5.85
2019-03-21T03:13:59.429Z,8.25
2019-03-21T03:16:26.713Z,8.65
2019-03-21T03:18:54.033Z,5.72
2019-03-21T03:21:21.079Z,11.30
2019-03-21T03:23:48.133Z,9.35
2019-03-21T03:26:15.172Z,5.80
2019-03-21T03:28:42.481Z,11.20
2019-03-21T03:31:09.522Z,6.45
2019-03-21T03:33:36.574Z,7.42
2019-03-21T03:36:04.089Z,7.58
2019-03-21T03:38:31.152Z,8.20
2019-03-21T03:40:58.196Z,8.80
2019-03-21T03:43:25.539Z,6.50
2019-03-21T03:45:52.588Z,7.15
2019-03-21T03:48:20.815Z,5.70
2019-03-21T03:50:48.066Z,6.55
2019-03-21T03:53:15.471Z,6.37
2019-03-21T03:55:42.824Z,9.30
2019-03-21T03:58:10.188Z,10.32
2019-03-21T04:00:37.541Z,5.58
2019-03-21T04:03:05.812Z,7.65
2019-03-21T04:05:33.170Z,8.43
2019-03-21T04:08:00.215Z,6.95
2019-03-21T04:10:27.338Z,5.53
2019-03-21T04:12:54.390Z,8.00
2019-03-21T04:15:21.767Z,9.13
2019-03-21T04:17:48.820Z,6.35
2019-03-21T04:20:16.111Z,5.03
2019-03-21T04:22:43.168Z,7.05
2019-03-21T04:25:10.473Z,6.92
2019-03-21T04:27:37.508Z,6.35
2019-03-21T04:30:04.899Z,8.58
2019-03-21T04:32:31.939Z,4.75
2019-03-21T04:34:59.273Z,7.17
2019-03-21T04:37:26.634Z,6.90
2019-03-21T04:39:53.684Z,7.17
2019-03-21T04:42:20.722Z,7.22
2019-03-21T04:44:48.085Z,9.80
2019-03-21T04:47:15.446Z,8.75
2019-03-21T04:49:42.790Z,7.85
2019-03-21T04:52:10.147Z,5.05
2019-03-21T04:54:37.253Z,7.28
2019-03-21T04:57:04.554Z,9.80
2019-03-21T04:59:31.602Z,6.40
2019-03-21T05:01:58.648Z,6.05
2019-03-21T05:04:25.715Z,9.75
2019-03-21T05:06:53.054Z,8.50
2019-03-21T05:11:59.743Z,10.08
2019-03-21T05:14:27.203Z,5.45
2019-03-21T05:16:54.244Z,9.20
2019-03-21T05:19:21.298Z,7.83
2019-03-21T05:21:48.650Z,8.58
2019-03-21T05:24:15.712Z,11.80
2019-03-21T05:26:42.890Z,10.60
2019-03-21T05:29:10.321Z,8.45
2019-03-21T05:31:37.369Z,10.00
2019-03-21T05:34:04.705Z,8.25
2019-03-21T05:36:33.015Z,13.40
2019-03-21T05:39:00.067Z,10.90
2019-03-21T05:41:27.107Z,9.68
2019-03-21T05:43:54.156Z,8.25
2019-03-21T05:46:26.439Z,9.00
2019-03-21T05:48:51.333Z,12.90
2019-03-21T05:51:18.371Z,11.18
2019-03-21T05:53:45.425Z,9.28
2019-03-21T05:56:12.464Z,7.22
2019-03-21T05:58:39.518Z,7.62
2019-03-21T06:01:06.550Z,7.37
2019-03-21T06:03:33.894Z,8.78
2019-03-21T06:06:00.944Z,11.08
2019-03-21T06:08:28.293Z,9.93
2019-03-21T06:10:55.344Z,12.47
2019-03-21T06:13:22.697Z,13.88
2019-03-21T06:15:50.052Z,7.83
2019-03-21T06:18:17.409Z,15.75
2019-03-21T06:20:44.470Z,12.47
2019-03-21T06:23:11.506Z,14.07
2019-03-21T06:25:38.815Z,16.60
2019-03-21T06:28:05.848Z,18.37
2019-03-21T06:30:32.900Z,17.70
2019-03-21T06:32:59.939Z,23.80
2019-03-21T06:35:27.358Z,16.32
2019-03-21T06:37:54.405Z,16.17
2019-03-21T06:40:21.457Z,13.80
2019-03-21T06:42:48.495Z,8.45
2019-03-21T06:45:15.544Z,9.80
2019-03-21T06:47:42.580Z,6.50
2019-03-21T06:50:09.950Z,8.23
2019-03-21T06:52:37.253Z,6.65
2019-03-21T06:55:04.670Z,7.65
2019-03-21T06:57:32.014Z,8.03
2019-03-21T06:59:59.375Z,10.82
2019-03-21T07:02:26.423Z,8.98
2019-03-21T07:04:53.773Z,7.60
2019-03-21T07:07:20.812Z,10.72
2019-03-21T07:09:47.851Z,9.98
2019-03-21T07:12:14.899Z,8.93
2019-03-21T07:14:42.294Z,6.70
2019-03-21T07:17:09.625Z,7.67
2019-03-21T07:19:37.887Z,8.53
2019-03-21T07:22:04.941Z,7.47
2019-03-21T07:24:31.982Z,8.38
2019-03-21T07:26:59.035Z,9.13
2019-03-21T07:29:26.402Z,8.78
2019-03-21T07:31:53.454Z,8.60
2019-03-21T07:34:20.508Z,12.45
2019-03-21T07:36:47.855Z,11.15
2019-03-21T07:39:15.212Z,9.83
2019-03-21T07:41:42.268Z,10.90
2019-03-21T07:44:09.308Z,13.30
2019-03-21T07:46:36.365Z,10.43
2019-03-21T07:49:03.476Z,9.88
2019-03-21T07:51:30.539Z,10.58
2019-03-21T07:53:57.577Z,11.95
2019-03-21T07:56:25.089Z,10.15
2019-03-21T07:58:52.162Z,8.70
2019-03-21T08:01:19.223Z,15.08
2019-03-21T08:03:46.512Z,10.10
2019-03-21T08:06:13.883Z,10.43
2019-03-21T08:08:41.225Z,11.83
2019-03-21T08:11:08.575Z,10.30
2019-03-21T08:13:35.620Z,12.15
2019-03-21T08:16:02.975Z,10.72
2019-03-21T08:18:30.333Z,11.50
2019-03-21T08:21:00.005Z,15.20
2019-03-21T08:23:26.476Z,12.23
2019-03-21T08:25:53.531Z,11.78
2019-03-21T08:28:20.577Z,12.82
2019-03-21T08:30:47.617Z,9.65
2019-03-21T08:33:14.672Z,10.68
2019-03-21T08:35:41.719Z,10.85
2019-03-21T08:38:08.772Z,9.18
2019-03-21T08:40:35.816Z,11.50
2019-03-21T08:43:03.174Z,10.05
2019-03-21T08:45:31.546Z,8.55
2019-03-21T08:47:58.919Z,13.18
2019-03-21T08:50:26.260Z,11.15
2019-03-21T08:52:53.319Z,10.28
2019-03-21T08:55:20.367Z,13.10
2019-03-21T08:57:47.424Z,8.90
2019-03-21T09:00:14.464Z,11.08
2019-03-21T09:02:41.523Z,8.75
2019-03-21T09:05:08.562Z,9.48
2019-03-21T09:07:35.917Z,12.82
2019-03-21T09:10:02.957Z,11.35
2019-03-21T09:12:30.506Z,12.85
2019-03-21T09:14:57.553Z,8.53
2019-03-21T09:17:24.603Z,10.05
2019-03-21T09:19:51.649Z,11.78
2019-03-21T09:22:19.007Z,7.90
2019-03-21T09:24:46.050Z,8.00
2019-03-21T09:27:13.101Z,7.00
2019-03-21T09:29:40.148Z,10.15
2019-03-21T09:32:07.233Z,10.48
2019-03-21T09:34:34.258Z,7.95
2019-03-21T09:37:03.887Z,9.18
2019-03-21T09:39:31.314Z,13.78
2019-03-21T09:41:58.355Z,7.55
2019-03-21T09:44:25.415Z,8.80
2019-03-21T09:46:52.451Z,7.03
2019-03-21T09:49:19.503Z,8.70
2019-03-21T09:51:46.790Z,11.33
2019-03-21T09:54:14.112Z,9.95
2019-03-21T09:56:41.477Z,9.55
2019-03-21T09:59:08.822Z,7.50
2019-03-21T10:01:35.864Z,6.33
2019-03-21T10:04:03.223Z,9.35
2019-03-21T10:06:30.258Z,8.00
2019-03-21T10:08:57.630Z,6.53
2019-03-21T10:11:24.982Z,6.65
2019-03-21T10:13:52.035Z,7.28
2019-03-21T10:16:19.147Z,10.13
2019-03-21T10:18:46.535Z,10.58
2019-03-21T10:21:13.579Z,7.97
2019-03-21T10:23:40.630Z,8.68
2019-03-21T10:26:07.677Z,8.38
2019-03-21T10:28:35.034Z,8.65
2019-03-21T10:31:02.074Z,8.23
2019-03-21T10:33:29.128Z,6.25
2019-03-21T10:35:56.172Z,6.87
2019-03-21T10:38:23.531Z,9.75
2019-03-21T10:40:50.577Z,7.90
2019-03-21T10:43:17.631Z,6.47
2019-03-21T10:45:44.998Z,6.05
2019-03-21T10:48:12.041Z,5.97
2019-03-21T10:50:39.082Z,6.85
2019-03-21T10:53:07.203Z,10.38
2019-03-21T10:55:34.246Z,8.30
2019-03-21T10:58:01.284Z,8.18
2019-03-21T11:00:28.342Z,8.45
2019-03-21T11:02:55.379Z,7.50
2019-03-21T11:05:23.354Z,7.30
2019-03-21T11:07:50.870Z,7.97
2019-03-21T11:10:17.924Z,6.70
2019-03-21T11:12:46.302Z,8.88
2019-03-21T11:15:13.358Z,7.10
2019-03-21T11:17:40.398Z,9.88
2019-03-21T11:20:07.452Z,5.85
2019-03-21T11:22:34.492Z,7.62
2019-03-21T11:25:01.847Z,8.43
2019-03-21T11:27:28.884Z,6.15
2019-03-21T11:29:55.938Z,5.95
2019-03-21T11:32:22.973Z,6.87
2019-03-21T11:34:50.040Z,6.87
2019-03-21T11:37:17.396Z,6.35
2019-03-21T11:39:44.750Z,6.42
2019-03-21T11:42:11.790Z,5.62
2019-03-21T11:44:38.850Z,8.18
2019-03-21T11:47:05.897Z,5.60
2019-03-21T11:49:32.997Z,7.45
2019-03-21T11:51:59.986Z,7.37
2019-03-21T11:54:27.342Z,7.72
2019-03-21T11:56:54.630Z,5.55
2019-03-21T11:59:21.688Z,6.15
2019-03-21T12:01:48.729Z,7.15
2019-03-21T12:04:15.783Z,5.50
2019-03-21T12:06:42.820Z,5.78
2019-03-21T12:09:09.859Z,8.23
2019-03-21T12:11:36.910Z,4.30
2019-03-21T12:14:04.240Z,9.18
2019-03-21T12:16:31.609Z,6.87
2019-03-21T12:18:58.646Z,9.30
2019-03-21T12:21:25.718Z,7.35
2019-03-21T12:23:52.759Z,6.28
2019-03-21T12:26:19.815Z,11.28
2019-03-21T12:28:46.861Z,7.78
2019-03-21T12:31:13.914Z,8.55
2019-03-21T12:33:40.960Z,6.20
2019-03-21T12:36:08.288Z,6.90
2019-03-21T12:38:35.394Z,7.10
2019-03-21T12:41:02.793Z,5.15
2019-03-21T12:43:30.094Z,8.38
2019-03-21T12:45:57.150Z,6.70
2019-03-21T12:48:24.548Z,8.13
2019-03-21T12:50:51.599Z,6.00
2019-03-21T12:53:18.645Z,7.10
2019-03-21T12:55:45.998Z,7.75
2019-03-21T12:58:13.035Z,8.35
2019-03-21T13:00:41.067Z,7.83
2019-03-21T13:03:08.102Z,6.78
2019-03-21T13:05:35.425Z,7.17
2019-03-21T13:08:02.464Z,7.78
2019-03-21T13:10:29.536Z,6.60
2019-03-21T13:12:56.578Z,6.35
2019-03-21T13:15:29.860Z,8.93
2019-03-21T13:17:52.654Z,7.30
2019-03-21T13:20:19.718Z,7.90
2019-03-21T13:22:52.768Z,5.22
2019-03-21T13:25:15.507Z,6.47
2019-03-21T13:27:42.551Z,5.28
2019-03-21T13:30:09.891Z,6.75
2019-03-21T13:32:36.935Z,6.20
2019-03-21T13:35:06.203Z,8.50
2019-03-21T13:37:32.727Z,6.78
2019-03-21T13:39:59.762Z,7.85
2019-03-21T13:42:27.079Z,8.88
2019-03-21T13:44:54.430Z,9.83
2019-03-21T13:47:21.787Z,6.42
2019-03-21T13:49:48.833Z,6.62
2019-03-21T13:52:16.210Z,7.15
2019-03-21T13:54:43.546Z,7.75
2019-03-21T13:57:10.898Z,8.00
2019-03-21T13:59:38.259Z,6.15
2019-03-21T14:02:05.321Z,10.28
2019-03-21T14:04:32.659Z,7.83
2019-03-21T14:07:00.014Z,7.67
2019-03-21T14:09:27.367Z,7.87
2019-03-21T14:11:54.422Z,7.65
2019-03-21T14:14:21.471Z,9.25
2019-03-21T14:16:50.878Z,6.50
2019-03-21T14:19:17.586Z,7.85
2019-03-21T14:21:45.607Z,7.85
2019-03-21T14:24:12.935Z,8.50
2019-03-21T14:26:40.241Z,7.22
2019-03-21T14:29:12.518Z,7.55
2019-03-21T14:31:36.327Z,9.45
2019-03-21T14:34:04.342Z,10.50
2019-03-21T14:36:31.407Z,7.40
2019-03-21T14:38:58.442Z,6.58
2019-03-21T14:41:25.751Z,7.40
2019-03-21T14:43:52.803Z,9.08
2019-03-21T14:46:20.169Z,9.10
2019-03-21T14:48:47.508Z,7.03
2019-03-21T14:51:14.794Z,5.85
2019-03-21T14:53:42.921Z,9.70
2019-03-21T14:56:09.971Z,8.25
2019-03-21T14:58:37.339Z,10.28
2019-03-21T15:01:04.455Z,8.33
2019-03-21T15:03:31.863Z,5.45
2019-03-21T15:05:58.905Z,8.93
2019-03-21T15:08:26.252Z,5.00
2019-03-21T15:10:53.282Z,7.42
2019-03-21T15:13:20.359Z,3.70
2019-03-21T15:15:47.379Z,6.50
2019-03-21T15:18:14.430Z,7.67
2019-03-21T15:20:41.466Z,4.33
2019-03-21T15:23:08.523Z,5.33
2019-03-21T15:25:35.983Z,4.50
2019-03-21T15:28:03.116Z,4.28
2019-03-21T15:30:31.372Z,5.60
2019-03-21T15:32:58.496Z,7.80
2019-03-21T15:35:25.823Z,3.67
2019-03-21T15:37:53.187Z,6.05
2019-03-21T15:40:20.291Z,6.12
2019-03-21T15:42:47.703Z,5.12
2019-03-21T15:45:22.194Z,6.75
2019-03-21T15:47:43.565Z,4.70
2019-03-21T15:50:11.676Z,6.17
2019-03-21T15:52:39.047Z,5.53
2019-03-21T15:55:06.103Z,4.58
2019-03-21T15:57:33.476Z,5.95
2019-03-21T16:00:00.522Z,6.62
2019-03-21T16:02:27.566Z,5.15
2019-03-21T16:04:58.623Z,4.03
2019-03-21T16:07:27.939Z,4.40
2019-03-21T16:09:55.187Z,5.75
2019-03-21T16:12:22.261Z,3.30
2019-03-21T16:14:49.454Z,5.87
2019-03-21T16:17:16.508Z,6.65
2019-03-21T16:19:43.554Z,4.45
2019-03-21T16:22:10.622Z,6.92
2019-03-21T16:24:37.683Z,4.83
2019-03-21T16:27:04.727Z,8.15
2019-03-21T16:29:32.138Z,7.25
2019-03-21T16:31:59.200Z,6.85
2019-03-21T16:34:26.543Z,7.72
2019-03-21T16:36:53.595Z,3.45
2019-03-21T16:39:20.659Z,4.60
2019-03-21T16:41:48.011Z,3.87
2019-03-21T16:44:15.074Z,4.12
2019-03-21T16:46:42.121Z,5.00
2019-03-21T16:49:09.183Z,3.45
2019-03-21T16:51:39.563Z,3.62
2019-03-21T16:54:16.481Z,3.47
2019-03-21T16:56:35.364Z,5.20
2019-03-21T16:59:02.759Z,3.70
2019-03-21T17:01:30.141Z,4.30
2019-03-21T17:03:57.587Z,2.60
2019-03-21T17:06:24.658Z,4.12
2019-03-21T17:08:51.720Z,3.52
2019-03-21T17:11:19.022Z,3.27
2019-03-21T17:13:46.100Z,4.90
2019-03-21T17:16:13.160Z,2.45
2019-03-21T17:18:40.211Z,3.25
2019-03-21T17:21:09.493Z,3.85
2019-03-21T17:23:36.337Z,5.92
2019-03-21T17:26:03.666Z,4.65
2019-03-21T17:28:30.735Z,5.03
2019-03-21T17:30:57.786Z,4.55
2019-03-21T17:33:24.835Z,5.28
2019-03-21T17:35:51.906Z,5.72
2019-03-21T17:38:18.966Z,5.40
2019-03-21T17:40:46.359Z,4.20
2019-03-21T17:43:13.411Z,4.85
2019-03-21T17:45:40.805Z,3.77
2019-03-21T17:48:08.238Z,5.78
2019-03-21T17:50:35.574Z,3.10
2019-03-21T17:53:02.930Z,2.98
2019-03-21T17:55:31.305Z,3.62
2019-03-21T17:57:58.353Z,3.75
2019-03-21T18:00:25.715Z,2.60
2019-03-21T18:02:52.765Z,4.17
2019-03-21T18:05:19.823Z,4.47
2019-03-21T18:07:47.934Z,2.98
2019-03-21T18:10:16.385Z,4.75
2019-03-21T18:12:43.717Z,3.25
2019-03-21T18:15:11.175Z,3.15
2019-03-21T18:17:39.291Z,2.92
2019-03-21T18:20:06.701Z,3.12
2019-03-21T18:22:33.747Z,6.17
2019-03-21T18:25:01.107Z,2.92
2019-03-21T18:27:28.154Z,3.22
2019-03-21T18:29:55.214Z,5.62
2019-03-21T18:32:22.558Z,3.85
2019-03-21T18:34:49.928Z,5.62
2019-03-21T18:37:16.974Z,3.20
2019-03-21T18:39:44.034Z,3.83
2019-03-21T18:42:11.337Z,5.22
2019-03-21T18:44:38.401Z,4.58
2019-03-21T18:47:05.444Z,5.42
2019-03-21T18:49:32.484Z,4.87
2019-03-21T18:51:59.602Z,5.40
2019-03-21T18:54:27.021Z,3.58
2019-03-21T18:56:54.118Z,5.05
2019-03-21T18:59:21.172Z,3.75
2019-03-21T19:01:57.949Z,4.17
2019-03-21T19:04:17.662Z,8.10
2019-03-21T19:06:44.766Z,3.80
2019-03-21T19:09:11.842Z,5.15
2019-03-21T19:11:39.238Z,2.37
2019-03-21T19:14:06.281Z,3.83
2019-03-21T19:16:33.344Z,3.95
2019-03-21T19:19:00.688Z,5.95
2019-03-21T19:21:27.995Z,5.80
2019-03-21T19:23:56.297Z,4.58
2019-03-21T19:26:23.357Z,5.67
2019-03-21T19:28:50.425Z,5.50
2019-03-21T19:31:17.750Z,3.90
2019-03-21T19:33:45.146Z,5.37
2019-03-21T19:36:12.163Z,8.03
2019-03-21T19:38:39.213Z,5.70
2019-03-21T19:41:06.553Z,5.05
2019-03-21T19:43:33.612Z,4.95
2019-03-21T19:46:01.738Z,4.50
2019-03-21T19:48:28.773Z,4.78
2019-03-21T19:50:56.178Z,7.55
2019-03-21T19:53:23.226Z,4.12
2019-03-21T19:55:50.283Z,7.05
2019-03-21T19:58:17.326Z,6.45
2019-03-21T20:00:44.680Z,9.35
2019-03-21T20:03:11.732Z,5.47
2019-03-21T20:05:39.082Z,5.60
2019-03-21T20:08:09.286Z,9.78
2019-03-21T20:10:37.578Z,6.25
2019-03-21T20:13:04.628Z,9.15
2019-03-21T20:15:31.861Z,7.62
2019-03-21T20:17:59.158Z,9.00
2019-03-21T20:20:26.695Z,5.92
2019-03-21T20:22:54.256Z,5.45
2019-03-21T20:25:23.659Z,4.33
2019-03-21T20:27:51.130Z,6.33
2019-03-21T20:30:18.246Z,14.73
2019-03-21T20:32:45.631Z,7.17
2019-03-21T20:35:12.683Z,12.63
2019-03-21T20:37:39.773Z,7.75
2019-03-21T20:40:06.885Z,6.60
2019-03-21T20:42:34.249Z,6.47
2019-03-21T20:45:01.305Z,8.15
2019-03-21T20:47:29.854Z,7.72
2019-03-21T20:49:56.897Z,7.78
2019-03-21T20:52:23.958Z,4.87
2019-03-21T20:54:51.004Z,7.65
2019-03-21T20:57:18.374Z,10.15
2019-03-21T20:59:45.424Z,5.83
2019-03-21T21:02:13.547Z,5.03
2019-03-21T21:04:40.591Z,4.87
2019-03-21T21:07:09.104Z,8.85
2019-03-21T21:09:36.152Z,5.33
2019-03-21T21:12:03.510Z,5.65
2019-03-21T21:14:30.866Z,3.85
2019-03-21T21:16:58.217Z,5.22
2019-03-21T21:19:25.292Z,5.30
2019-03-21T21:21:52.328Z,5.67
2019-03-21T21:24:19.665Z,5.95
2019-03-21T21:26:47.025Z,5.47
2019-03-21T21:29:14.067Z,4.95
2019-03-21T21:31:41.130Z,5.60
2019-03-21T21:34:08.186Z,6.35
2019-03-21T21:36:35.243Z,6.75
2019-03-21T21:39:02.590Z,6.25
2019-03-21T21:41:31.119Z,5.92
2019-03-21T21:43:58.527Z,8.43
2019-03-21T21:46:25.589Z,7.00
2019-03-21T21:48:52.637Z,4.97
2019-03-21T21:51:20.062Z,4.45
2019-03-21T21:53:47.418Z,4.03
2019-03-21T21:56:17.817Z,5.37
2019-03-21T21:58:43.226Z,3.92
2019-03-21T22:01:10.449Z,7.05
2019-03-21T22:03:37.672Z,3.87
2019-03-21T22:06:04.733Z,4.70
2019-03-21T22:08:31.794Z,7.45
2019-03-21T22:10:58.855Z,6.30
2019-03-21T22:13:25.930Z,7.15
2019-03-21T22:15:52.979Z,7.37
2019-03-21T22:18:20.047Z,8.83
2019-03-21T22:20:47.090Z,8.13
2019-03-21T22:23:14.450Z,7.17
2019-03-21T22:25:41.497Z,7.47
2019-03-21T22:28:10.158Z,5.40
2019-03-21T22:30:38.900Z,6.03
2019-03-21T22:35:47.218Z,5.55
2019-03-21T22:38:19.723Z,10.58
2019-03-21T22:40:49.026Z,7.12
2019-03-21T22:48:33.261Z,6.25
2019-03-21T22:51:03.689Z,6.67
2019-03-21T22:53:31.913Z,6.40
2019-03-21T22:56:00.069Z,8.40
2019-03-21T22:58:31.994Z,5.10
2019-03-21T23:01:16.474Z,6.22
2019-03-21T23:03:43.694Z,6.17
2019-03-21T23:06:10.982Z,6.80
2019-03-21T23:16:21.817Z,7.35
2019-03-21T23:18:49.158Z,6.60
2019-03-21T23:21:18.628Z,5.60
2019-03-21T23:23:45.682Z,7.53
2019-03-21T23:26:12.721Z,6.22
2019-03-21T23:28:39.769Z,6.17
2019-03-21T23:31:06.871Z,8.40
2019-03-21T23:33:34.545Z,10.35
2019-03-21T23:36:01.585Z,6.17
2019-03-21T23:38:28.900Z,8.35
2019-03-21T23:40:56.666Z,6.00
2019-03-21T23:43:24.791Z,7.33
2019-03-21T23:46:04.001Z,9.10
2019-03-21T23:48:31.297Z,7.08
2019-03-21T23:50:58.329Z,9.40
2019-03-21T23:53:25.381Z,12.10
2019-03-21T23:55:52.416Z,9.40
2019-03-21T23:58:19.827Z,8.70
